sensor_id;sensor_type;location;lat;lon;timestamp;pressure;altitude;pressure_sealevel;temperature;humidity
69535;BME280;56754;51.568;5.048;2023-04-09T00:01:05;102529.84;;;15.27;58.62
69535;BME280;56754;51.568;5.048;2023-04-09T00:03:31;102524.25;;;15.23;58.38
69535;BME280;56754;51.568;5.048;2023-04-09T00:05:56;102527.53;;;15.20;58.71
69535;BME280;56754;51.568;5.048;2023-04-09T00:08:22;102521.63;;;15.18;58.69
69535;BME280;56754;51.568;5.048;2023-04-09T00:10:47;102531.13;;;15.16;58.63
69535;BME280;56754;51.568;5.048;2023-04-09T00:13:12;102526.31;;;15.13;58.67
69535;BME280;56754;51.568;5.048;2023-04-09T00:15:38;102524.22;;;15.10;58.70
69535;BME280;56754;51.568;5.048;2023-04-09T00:18:03;102524.50;;;15.08;58.89
69535;BME280;56754;51.568;5.048;2023-04-09T00:20:28;102520.56;;;15.06;58.72
69535;BME280;56754;51.568;5.048;2023-04-09T00:22:53;102522.72;;;15.04;58.76
69535;BME280;56754;51.568;5.048;2023-04-09T00:25:19;102514.94;;;15.02;58.91
69535;BME280;56754;51.568;5.048;2023-04-09T00:27:44;102514.75;;;14.98;58.95
69535;BME280;56754;51.568;5.048;2023-04-09T00:30:10;102511.53;;;14.96;59.10
69535;BME280;56754;51.568;5.048;2023-04-09T00:32:35;102499.50;;;14.94;59.08
69535;BME280;56754;51.568;5.048;2023-04-09T00:35:00;102513.56;;;14.91;58.93
69535;BME280;56754;51.568;5.048;2023-04-09T00:37:25;102506.53;;;14.90;59.18
69535;BME280;56754;51.568;5.048;2023-04-09T00:39:51;102497.97;;;14.88;59.22
69535;BME280;56754;51.568;5.048;2023-04-09T00:42:16;102507.47;;;14.85;59.06
69535;BME280;56754;51.568;5.048;2023-04-09T00:44:41;102505.03;;;14.84;59.18
69535;BME280;56754;51.568;5.048;2023-04-09T00:47:07;102493.78;;;14.82;59.58
69535;BME280;56754;51.568;5.048;2023-04-09T00:49:32;102498.66;;;14.79;59.28
69535;BME280;56754;51.568;5.048;2023-04-09T00:51:58;102497.38;;;14.77;59.09
69535;BME280;56754;51.568;5.048;2023-04-09T00:54:23;102505.72;;;14.75;59.42
69535;BME280;56754;51.568;5.048;2023-04-09T00:56:48;102498.75;;;14.74;59.97
69535;BME280;56754;51.568;5.048;2023-04-09T00:59:14;102486.69;;;14.72;59.49
69535;BME280;56754;51.568;5.048;2023-04-09T01:01:39;102491.56;;;14.70;59.53
69535;BME280;56754;51.568;5.048;2023-04-09T01:04:05;102481.09;;;14.68;59.97
69535;BME280;56754;51.568;5.048;2023-04-09T01:06:51;102486.75;;;14.67;59.87
69535;BME280;56754;51.568;5.048;2023-04-09T01:09:25;102483.59;;;14.65;59.54
69535;BME280;56754;51.568;5.048;2023-04-09T01:14:50;102486.56;;;14.63;60.22
69535;BME280;56754;51.568;5.048;2023-04-09T01:17:28;102476.41;;;14.60;60.07
69535;BME280;56754;51.568;5.048;2023-04-09T01:20:10;102477.50;;;14.59;60.09
69535;BME280;56754;51.568;5.048;2023-04-09T01:28:13;102469.50;;;14.54;60.56
69535;BME280;56754;51.568;5.048;2023-04-09T01:30:41;102469.00;;;14.52;60.71
69535;BME280;56754;51.568;5.048;2023-04-09T01:33:08;102466.59;;;14.50;60.51
69535;BME280;56754;51.568;5.048;2023-04-09T01:35:36;102470.38;;;14.49;60.54
69535;BME280;56754;51.568;5.048;2023-04-09T01:38:02;102467.97;;;14.48;60.82
69535;BME280;56754;51.568;5.048;2023-04-09T01:40:28;102467.97;;;14.48;60.61
69535;BME280;56754;51.568;5.048;2023-04-09T01:42:55;102469.06;;;14.47;60.92
69535;BME280;56754;51.568;5.048;2023-04-09T01:45:21;102465.88;;;14.45;61.00
69535;BME280;56754;51.568;5.048;2023-04-09T01:47:47;102464.28;;;14.44;60.75
69535;BME280;56754;51.568;5.048;2023-04-09T01:50:13;102458.38;;;14.42;60.35
69535;BME280;56754;51.568;5.048;2023-04-09T01:52:39;102463.78;;;14.42;60.64
69535;BME280;56754;51.568;5.048;2023-04-09T01:55:04;102462.97;;;14.41;60.90
69535;BME280;56754;51.568;5.048;2023-04-09T01:57:30;102464.88;;;14.41;60.83
69535;BME280;56754;51.568;5.048;2023-04-09T01:59:55;102457.09;;;14.39;61.08
69535;BME280;56754;51.568;5.048;2023-04-09T02:02:27;102462.78;;;14.38;60.60
69535;BME280;56754;51.568;5.048;2023-04-09T02:04:57;102466.53;;;14.37;61.14
69535;BME280;56754;51.568;5.048;2023-04-09T02:07:47;102462.25;;;14.36;61.50
69535;BME280;56754;51.568;5.048;2023-04-09T02:10:18;102455.28;;;14.34;60.99
69535;BME280;56754;51.568;5.048;2023-04-09T02:12:48;102465.22;;;14.34;60.90
69535;BME280;56754;51.568;5.048;2023-04-09T02:15:15;102453.16;;;14.31;60.68
69535;BME280;56754;51.568;5.048;2023-04-09T02:17:42;102462.84;;;14.32;61.46
69535;BME280;56754;51.568;5.048;2023-04-09T02:20:07;102463.91;;;14.31;61.66
69535;BME280;56754;51.568;5.048;2023-04-09T02:22:33;102459.66;;;14.30;61.33
69535;BME280;56754;51.568;5.048;2023-04-09T02:24:58;102462.34;;;14.30;61.71
69535;BME280;56754;51.568;5.048;2023-04-09T02:27:24;102455.66;;;14.28;61.77
69535;BME280;56754;51.568;5.048;2023-04-09T02:29:49;102455.66;;;14.28;61.43
69535;BME280;56754;51.568;5.048;2023-04-09T02:32:14;102461.34;;;14.26;61.50
69535;BME280;56754;51.568;5.048;2023-04-09T02:34:40;102460.53;;;14.26;61.97
69535;BME280;56754;51.568;5.048;2023-04-09T02:37:05;102461.63;;;14.25;61.75
69535;BME280;56754;51.568;5.048;2023-04-09T02:39:31;102453.56;;;14.25;61.57
69535;BME280;56754;51.568;5.048;2023-04-09T02:41:56;102448.47;;;14.23;61.08
69535;BME280;56754;51.568;5.048;2023-04-09T02:44:21;102453.84;;;14.23;62.02
69535;BME280;56754;51.568;5.048;2023-04-09T02:46:46;102448.75;;;14.22;61.74
69535;BME280;56754;51.568;5.048;2023-04-09T02:49:12;102444.47;;;14.21;61.77
69535;BME280;56754;51.568;5.048;2023-04-09T02:51:37;102446.38;;;14.20;61.58
69535;BME280;56754;51.568;5.048;2023-04-09T02:54:03;102440.22;;;14.20;61.78
69535;BME280;56754;51.568;5.048;2023-04-09T02:56:28;102440.50;;;14.18;61.91
69535;BME280;56754;51.568;5.048;2023-04-09T02:58:55;102445.88;;;14.18;61.99
69535;BME280;56754;51.568;5.048;2023-04-09T03:01:20;102438.91;;;14.17;62.21
69535;BME280;56754;51.568;5.048;2023-04-09T03:03:46;102443.47;;;14.17;61.94
69535;BME280;56754;51.568;5.048;2023-04-09T03:06:12;102439.97;;;14.16;62.39
69535;BME280;56754;51.568;5.048;2023-04-09T03:08:37;102438.38;;;14.15;62.29
69535;BME280;56754;51.568;5.048;2023-04-09T03:11:03;102435.19;;;14.13;61.25
69535;BME280;56754;51.568;5.048;2023-04-09T03:13:28;102433.28;;;14.14;62.38
69535;BME280;56754;51.568;5.048;2023-04-09T03:15:53;102435.50;;;14.11;61.99
69535;BME280;56754;51.568;5.048;2023-04-09T03:18:19;102438.97;;;14.12;62.28
69535;BME280;56754;51.568;5.048;2023-04-09T03:20:45;102426.63;;;14.11;62.09
69535;BME280;56754;51.568;5.048;2023-04-09T03:23:11;102427.72;;;14.10;62.49
69535;BME280;56754;51.568;5.048;2023-04-09T03:25:36;102433.09;;;14.10;62.19
69535;BME280;56754;51.568;5.048;2023-04-09T03:28:02;102422.63;;;14.08;62.51
69535;BME280;56754;51.568;5.048;2023-04-09T03:30:28;102420.75;;;14.09;61.96
69535;BME280;56754;51.568;5.048;2023-04-09T03:32:53;102416.47;;;14.08;62.49
69535;BME280;56754;51.568;5.048;2023-04-09T03:35:18;102417.53;;;14.07;62.64
69535;BME280;56754;51.568;5.048;2023-04-09T03:37:44;102418.63;;;14.06;62.23
69535;BME280;56754;51.568;5.048;2023-04-09T03:40:09;102407.09;;;14.05;62.72
69535;BME280;56754;51.568;5.048;2023-04-09T03:42:35;102415.94;;;14.06;62.61
69535;BME280;56754;51.568;5.048;2023-04-09T03:45:00;102414.34;;;14.05;62.84
69535;BME280;56754;51.568;5.048;2023-04-09T03:47:25;102404.69;;;14.04;62.08
69535;BME280;56754;51.568;5.048;2023-04-09T03:49:51;102408.47;;;14.03;62.63
69535;BME280;56754;51.568;5.048;2023-04-09T03:52:16;102414.94;;;14.02;62.72
69535;BME280;56754;51.568;5.048;2023-04-09T03:54:41;102407.69;;;14.02;62.61
69535;BME280;56754;51.568;5.048;2023-04-09T03:57:07;102406.84;;;14.02;62.86
69535;BME280;56754;51.568;5.048;2023-04-09T03:59:32;102406.84;;;14.02;62.95
69535;BME280;56754;51.568;5.048;2023-04-09T04:01:57;102405.59;;;13.99;62.75
69535;BME280;56754;51.568;5.048;2023-04-09T04:04:22;102400.22;;;13.99;62.59
69535;BME280;56754;51.568;5.048;2023-04-09T04:06:48;102400.22;;;13.99;63.18
69535;BME280;56754;51.568;5.048;2023-04-09T04:09:13;102402.06;;;13.99;62.86
69535;BME280;56754;51.568;5.048;2023-04-09T04:11:38;102404.75;;;13.99;62.92
69535;BME280;56754;51.568;5.048;2023-04-09T04:14:04;102398.91;;;13.97;62.86
69535;BME280;56754;51.568;5.048;2023-04-09T04:16:29;102394.31;;;13.97;63.04
69535;BME280;56754;51.568;5.048;2023-04-09T04:18:54;102401.59;;;13.97;63.29
69535;BME280;56754;51.568;5.048;2023-04-09T04:21:20;102404.56;;;13.95;63.36
69535;BME280;56754;51.568;5.048;2023-04-09T04:23:45;102393.81;;;13.95;62.87
69535;BME280;56754;51.568;5.048;2023-04-09T04:26:10;102396.50;;;13.95;63.31
69535;BME280;56754;51.568;5.048;2023-04-09T04:28:37;102390.63;;;13.93;62.70
69535;BME280;56754;51.568;5.048;2023-04-09T04:31:09;102387.13;;;13.93;62.98
69535;BME280;56754;51.568;5.048;2023-04-09T04:33:34;102387.13;;;13.93;63.51
69535;BME280;56754;51.568;5.048;2023-04-09T04:36:08;102396.00;;;13.93;63.06
69535;BME280;56754;51.568;5.048;2023-04-09T04:38:33;102396.00;;;13.93;63.23
69535;BME280;56754;51.568;5.048;2023-04-09T04:40:59;102393.59;;;13.92;62.98
69535;BME280;56754;51.568;5.048;2023-04-09T04:43:25;102401.66;;;13.92;63.22
69535;BME280;56754;51.568;5.048;2023-04-09T04:45:50;102395.78;;;13.89;63.59
69535;BME280;56754;51.568;5.048;2023-04-09T04:48:15;102396.56;;;13.90;63.13
69535;BME280;56754;51.568;5.048;2023-04-09T04:50:41;102399.25;;;13.90;63.49
69535;BME280;56754;51.568;5.048;2023-04-09T04:53:06;102402.75;;;13.91;63.53
69535;BME280;56754;51.568;5.048;2023-04-09T04:55:34;102403.03;;;13.89;63.16
69535;BME280;56754;51.568;5.048;2023-04-09T04:57:59;102402.25;;;13.88;63.43
69535;BME280;56754;51.568;5.048;2023-04-09T05:00:25;102403.34;;;13.87;63.25
69535;BME280;56754;51.568;5.048;2023-04-09T05:02:50;102397.16;;;13.87;63.17
69535;BME280;56754;51.568;5.048;2023-04-09T05:05:15;102396.34;;;13.86;63.27
69535;BME280;56754;51.568;5.048;2023-04-09T05:07:41;102404.41;;;13.86;63.33
69535;BME280;56754;51.568;5.048;2023-04-09T05:10:07;102394.78;;;13.85;63.20
69535;BME280;56754;51.568;5.048;2023-04-09T05:12:32;102400.16;;;13.85;63.17
69535;BME280;56754;51.568;5.048;2023-04-09T05:14:57;102395.88;;;13.84;63.91
69535;BME280;56754;51.568;5.048;2023-04-09T05:17:23;102402.03;;;13.85;63.32
69535;BME280;56754;51.568;5.048;2023-04-09T05:19:52;102410.09;;;13.85;63.62
69535;BME280;56754;51.568;5.048;2023-04-09T05:22:18;102409.31;;;13.84;63.61
69535;BME280;56754;51.568;5.048;2023-04-09T05:24:43;102405.78;;;13.84;63.22
69535;BME280;56754;51.568;5.048;2023-04-09T05:27:09;102409.59;;;13.83;63.56
69535;BME280;56754;51.568;5.048;2023-04-09T05:29:34;102412.28;;;13.83;63.54
69535;BME280;56754;51.568;5.048;2023-04-09T05:31:59;102412.28;;;13.83;63.45
69535;BME280;56754;51.568;5.048;2023-04-09T05:34:25;102407.22;;;13.81;63.16
69535;BME280;56754;51.568;5.048;2023-04-09T05:36:50;102413.38;;;13.82;63.41
69535;BME280;56754;51.568;5.048;2023-04-09T05:39:15;102410.69;;;13.82;63.54
69535;BME280;56754;51.568;5.048;2023-04-09T05:41:41;102408.78;;;13.82;63.02
69535;BME280;56754;51.568;5.048;2023-04-09T05:44:06;102415.28;;;13.81;63.40
69535;BME280;56754;51.568;5.048;2023-04-09T05:46:31;102414.44;;;13.81;63.33
69535;BME280;56754;51.568;5.048;2023-04-09T05:48:56;102413.38;;;13.82;63.91
69535;BME280;56754;51.568;5.048;2023-04-09T05:51:22;102416.84;;;13.82;63.47
69535;BME280;56754;51.568;5.048;2023-04-09T05:53:47;102414.44;;;13.81;63.53
69535;BME280;56754;51.568;5.048;2023-04-09T05:56:13;102418.75;;;13.82;63.15
69535;BME280;56754;51.568;5.048;2023-04-09T05:58:39;102415.53;;;13.80;63.37
69535;BME280;56754;51.568;5.048;2023-04-09T06:01:04;102415.28;;;13.81;63.58
69535;BME280;56754;51.568;5.048;2023-04-09T06:03:29;102419.03;;;13.80;63.44
69535;BME280;56754;51.568;5.048;2023-04-09T06:05:55;102415.28;;;13.81;63.77
69535;BME280;56754;51.568;5.048;2023-04-09T06:08:20;102423.03;;;13.83;63.92
69535;BME280;56754;51.568;5.048;2023-04-09T06:10:45;102420.34;;;13.83;63.17
69535;BME280;56754;51.568;5.048;2023-04-09T06:13:11;102420.34;;;13.83;63.76
69535;BME280;56754;51.568;5.048;2023-04-09T06:15:37;102422.22;;;13.82;63.29
69535;BME280;56754;51.568;5.048;2023-04-09T06:18:02;102423.53;;;13.85;63.34
69535;BME280;56754;51.568;5.048;2023-04-09T06:20:28;102430.50;;;13.86;63.50
69535;BME280;56754;51.568;5.048;2023-04-09T06:22:53;102425.66;;;13.88;63.12
69535;BME280;56754;51.568;5.048;2023-04-09T06:25:18;102427.22;;;13.89;63.35
69535;BME280;56754;51.568;5.048;2023-04-09T06:27:44;102436.31;;;13.93;63.49
69535;BME280;56754;51.568;5.048;2023-04-09T06:30:09;102437.59;;;13.96;63.49
69535;BME280;56754;51.568;5.048;2023-04-09T06:32:35;102428.94;;;13.99;63.18
69535;BME280;56754;51.568;5.048;2023-04-09T06:35:00;102436.75;;;14.00;62.77
69535;BME280;56754;51.568;5.048;2023-04-09T06:37:25;102436.44;;;14.02;62.37
69535;BME280;56754;51.568;5.048;2023-04-09T06:39:51;102437.25;;;14.02;62.36
69535;BME280;56754;51.568;5.048;2023-04-09T06:42:16;102441.22;;;14.05;62.52
69535;BME280;56754;51.568;5.048;2023-04-09T06:44:41;102448.22;;;14.06;62.55
69535;BME280;56754;51.568;5.048;2023-04-09T06:47:07;102450.91;;;14.06;62.23
69535;BME280;56754;51.568;5.048;2023-04-09T06:49:32;102455.97;;;14.07;62.26
69535;BME280;56754;51.568;5.048;2023-04-09T06:51:57;102451.41;;;14.08;62.03
69535;BME280;56754;51.568;5.048;2023-04-09T06:54:23;102450.59;;;14.07;62.00
69535;BME280;56754;51.568;5.048;2023-04-09T06:56:48;102456.81;;;14.08;61.59
69535;BME280;56754;51.568;5.048;2023-04-09T06:59:13;102453.59;;;14.06;61.32
69535;BME280;56754;51.568;5.048;2023-04-09T07:01:39;102455.78;;;14.04;61.21
69535;BME280;56754;51.568;5.048;2023-04-09T07:04:04;102457.34;;;14.05;61.66
69535;BME280;56754;51.568;5.048;2023-04-09T07:06:30;102453.06;;;14.04;61.29
69535;BME280;56754;51.568;5.048;2023-04-09T07:08:55;102450.38;;;14.04;61.31
69535;BME280;56754;51.568;5.048;2023-04-09T07:11:20;102452.28;;;14.03;61.38
69535;BME280;56754;51.568;5.048;2023-04-09T07:13:46;102442.31;;;14.04;61.21
69535;BME280;56754;51.568;5.048;2023-04-09T07:16:11;102449.28;;;14.05;60.98
69535;BME280;56754;51.568;5.048;2023-04-09T07:18:36;102451.69;;;14.06;61.16
69535;BME280;56754;51.568;5.048;2023-04-09T07:21:02;102446.31;;;14.06;60.95
69535;BME280;56754;51.568;5.048;2023-04-09T07:23:27;102454.09;;;14.08;60.83
69535;BME280;56754;51.568;5.048;2023-04-09T07:25:52;102445.47;;;14.11;61.25
69535;BME280;56754;51.568;5.048;2023-04-09T07:28:18;102446.72;;;14.14;61.12
69535;BME280;56754;51.568;5.048;2023-04-09T07:30:43;102452.63;;;14.16;61.60
69535;BME280;56754;51.568;5.048;2023-04-09T07:33:08;102454.72;;;14.19;61.66
69535;BME280;56754;51.568;5.048;2023-04-09T07:35:34;102456.03;;;14.21;61.52
69535;BME280;56754;51.568;5.048;2023-04-09T07:37:59;102447.38;;;14.24;61.27
69535;BME280;56754;51.568;5.048;2023-04-09T07:40:25;102454.84;;;14.27;61.33
69535;BME280;56754;51.568;5.048;2023-04-09T07:42:50;102445.69;;;14.28;61.29
69535;BME280;56754;51.568;5.048;2023-04-09T07:45:15;102442.41;;;14.31;60.90
69535;BME280;56754;51.568;5.048;2023-04-09T07:47:41;102441.34;;;14.32;61.00
69535;BME280;56754;51.568;5.048;2023-04-09T07:50:07;102446.13;;;14.36;60.89
69535;BME280;56754;51.568;5.048;2023-04-09T07:52:32;102452.28;;;14.36;60.89
69535;BME280;56754;51.568;5.048;2023-04-09T07:54:57;102447.44;;;14.38;61.06
69535;BME280;56754;51.568;5.048;2023-04-09T07:57:23;102439.84;;;14.40;60.76
69535;BME280;56754;51.568;5.048;2023-04-09T07:59:48;102436.88;;;14.42;60.77
69535;BME280;56754;51.568;5.048;2023-04-09T08:02:14;102443.56;;;14.44;60.74
69535;BME280;56754;51.568;5.048;2023-04-09T08:04:39;102439.75;;;14.45;60.50
69535;BME280;56754;51.568;5.048;2023-04-09T08:07:04;102449.41;;;14.46;60.45
69535;BME280;56754;51.568;5.048;2023-04-09T08:09:29;102442.16;;;14.47;60.14
69535;BME280;56754;51.568;5.048;2023-04-09T08:11:55;102449.13;;;14.48;60.19
69535;BME280;56754;51.568;5.048;2023-04-09T08:14:20;102458.31;;;14.47;60.04
69535;BME280;56754;51.568;5.048;2023-04-09T08:16:46;102448.34;;;14.47;59.97
69535;BME280;56754;51.568;5.048;2023-04-09T08:19:13;102447.56;;;14.47;59.75
69535;BME280;56754;51.568;5.048;2023-04-09T08:21:40;102449.13;;;14.48;59.80
69535;BME280;56754;51.568;5.048;2023-04-09T08:24:05;102441.56;;;14.50;60.06
69535;BME280;56754;51.568;5.048;2023-04-09T08:26:30;102442.38;;;14.50;59.85
69535;BME280;56754;51.568;5.048;2023-04-09T08:28:56;102437.78;;;14.51;59.91
69535;BME280;56754;51.568;5.048;2023-04-09T08:31:21;102443.97;;;14.51;59.68
69535;BME280;56754;51.568;5.048;2023-04-09T08:33:47;102434.84;;;14.52;59.89
69535;BME280;56754;51.568;5.048;2023-04-09T08:36:12;102437.22;;;14.54;60.08
69535;BME280;56754;51.568;5.048;2023-04-09T08:38:37;102443.38;;;14.54;59.28
69535;BME280;56754;51.568;5.048;2023-04-09T08:41:03;102450.38;;;14.55;58.86
69535;BME280;56754;51.568;5.048;2023-04-09T08:43:31;102453.88;;;14.56;58.58
69535;BME280;56754;51.568;5.048;2023-04-09T08:45:56;102448.50;;;14.56;58.57
69535;BME280;56754;51.568;5.048;2023-04-09T08:48:23;102448.19;;;14.57;58.36
69535;BME280;56754;51.568;5.048;2023-04-09T08:50:49;102455.47;;;14.57;58.36
69535;BME280;56754;51.568;5.048;2023-04-09T08:53:15;102451.66;;;14.58;58.63
69535;BME280;56754;51.568;5.048;2023-04-09T08:55:44;102449.78;;;14.59;58.59
69535;BME280;56754;51.568;5.048;2023-04-09T08:58:10;102449.78;;;14.59;58.54
69535;BME280;56754;51.568;5.048;2023-04-09T09:00:36;102445.22;;;14.59;58.58
69535;BME280;56754;51.568;5.048;2023-04-09T09:03:06;102446.78;;;14.60;58.33
69535;BME280;56754;51.568;5.048;2023-04-09T09:05:43;102437.66;;;14.61;58.26
69535;BME280;56754;51.568;5.048;2023-04-09T09:08:10;102439.22;;;14.62;58.82
69535;BME280;56754;51.568;5.048;2023-04-09T09:10:43;102436.22;;;14.64;58.16
69535;BME280;56754;51.568;5.048;2023-04-09T09:15:44;102441.31;;;14.65;58.16
69535;BME280;56754;51.568;5.048;2023-04-09T09:18:09;102436.75;;;14.66;58.21
69535;BME280;56754;51.568;5.048;2023-04-09T09:20:35;102432.16;;;14.66;58.02
69535;BME280;56754;51.568;5.048;2023-04-09T09:23:01;102428.38;;;14.67;58.23
69535;BME280;56754;51.568;5.048;2023-04-09T09:25:26;102434.56;;;14.68;58.46
69535;BME280;56754;51.568;5.048;2023-04-09T09:27:52;102433.44;;;14.69;58.47
69535;BME280;56754;51.568;5.048;2023-04-09T09:30:24;102426.16;;;14.69;58.07
69535;BME280;56754;51.568;5.048;2023-04-09T09:32:51;102432.06;;;14.71;58.57
69535;BME280;56754;51.568;5.048;2023-04-09T09:35:17;102427.47;;;14.72;58.19
69535;BME280;56754;51.568;5.048;2023-04-09T09:37:42;102435.25;;;14.73;58.27
69535;BME280;56754;51.568;5.048;2023-04-09T09:40:08;102429.88;;;14.73;58.41
69535;BME280;56754;51.568;5.048;2023-04-09T09:42:35;102427.97;;;14.74;58.46
69535;BME280;56754;51.568;5.048;2023-04-09T09:45:04;102419.91;;;14.74;58.56
69535;BME280;56754;51.568;5.048;2023-04-09T09:47:42;102421.81;;;14.73;58.73
69535;BME280;56754;51.568;5.048;2023-04-09T09:50:08;102412.63;;;14.74;58.39
69535;BME280;56754;51.568;5.048;2023-04-09T09:52:39;102415.03;;;14.76;58.20
69535;BME280;56754;51.568;5.048;2023-04-09T09:55:07;102404.25;;;14.76;58.10
69535;BME280;56754;51.568;5.048;2023-04-09T09:57:38;102410.44;;;14.76;58.62
69535;BME280;56754;51.568;5.048;2023-04-09T10:00:06;102408.53;;;14.77;58.35
69535;BME280;56754;51.568;5.048;2023-04-09T10:02:37;102401.25;;;14.77;58.30
69535;BME280;56754;51.568;5.048;2023-04-09T10:05:05;102403.94;;;14.77;58.25
69535;BME280;56754;51.568;5.048;2023-04-09T10:07:33;102398.28;;;14.79;58.19
69535;BME280;56754;51.568;5.048;2023-04-09T10:10:01;102397.19;;;14.80;58.02
69535;BME280;56754;51.568;5.048;2023-04-09T10:12:26;102396.56;;;14.83;57.56
69535;BME280;56754;51.568;5.048;2023-04-09T10:14:53;102394.41;;;14.85;59.80
69535;BME280;56754;51.568;5.048;2023-04-09T10:17:19;102393.56;;;14.85;60.31
69535;BME280;56754;51.568;5.048;2023-04-09T10:19:55;102387.13;;;14.86;58.93
69535;BME280;56754;51.568;5.048;2023-04-09T10:22:24;102377.94;;;14.87;58.29
69535;BME280;56754;51.568;5.048;2023-04-09T10:24:51;102376.81;;;14.88;57.92
69535;BME280;56754;51.568;5.048;2023-04-09T10:27:16;102370.66;;;14.87;59.01
69535;BME280;56754;51.568;5.048;2023-04-09T10:29:47;102367.34;;;14.90;59.87
69535;BME280;56754;51.568;5.048;2023-04-09T10:32:20;102366.28;;;14.91;59.32
69535;BME280;56754;51.568;5.048;2023-04-09T10:34:46;102367.06;;;14.92;60.95
69535;BME280;56754;51.568;5.048;2023-04-09T10:37:25;102360.88;;;14.91;61.12
69535;BME280;56754;51.568;5.048;2023-04-09T10:39:51;102356.28;;;14.92;61.51
69535;BME280;56754;51.568;5.048;2023-04-09T10:42:36;102350.91;;;14.92;61.53
69535;BME280;56754;51.568;5.048;2023-04-09T10:45:13;102355.19;;;14.93;61.42
69535;BME280;56754;51.568;5.048;2023-04-09T10:47:41;102342.50;;;14.93;61.45
69535;BME280;56754;51.568;5.048;2023-04-09T10:50:26;102344.91;;;14.95;61.17
69535;BME280;56754;51.568;5.048;2023-04-09T10:52:53;102356.47;;;14.95;61.60
69535;BME280;56754;51.568;5.048;2023-04-09T10:55:39;102339.22;;;14.96;61.82
69535;BME280;56754;51.568;5.048;2023-04-09T10:58:10;102352.41;;;14.98;61.54
69535;BME280;56754;51.568;5.048;2023-04-09T11:00:37;102348.59;;;14.99;62.02
69535;BME280;56754;51.568;5.048;2023-04-09T11:05:35;102340.22;;;15.00;61.95
69535;BME280;56754;51.568;5.048;2023-04-09T11:08:08;102336.44;;;15.01;61.86
69535;BME280;56754;51.568;5.048;2023-04-09T11:10:35;102328.84;;;15.04;61.86
69535;BME280;56754;51.568;5.048;2023-04-09T11:13:01;102332.06;;;15.06;61.94
69535;BME280;56754;51.568;5.048;2023-04-09T11:15:27;102335.53;;;15.06;61.85
69535;BME280;56754;51.568;5.048;2023-04-09T11:17:53;102327.94;;;15.08;61.90
69535;BME280;56754;51.568;5.048;2023-04-09T11:20:20;102326.06;;;15.09;61.81
69535;BME280;56754;51.568;5.048;2023-04-09T11:22:46;102323.84;;;15.11;61.67
69535;BME280;56754;51.568;5.048;2023-04-09T11:25:23;102329.72;;;15.13;61.50
69535;BME280;56754;51.568;5.048;2023-04-09T11:27:49;102327.03;;;15.13;61.54
69535;BME280;56754;51.568;5.048;2023-04-09T11:30:14;102332.09;;;15.14;61.52
69535;BME280;56754;51.568;5.048;2023-04-09T11:32:40;102332.59;;;15.16;61.26
69535;BME280;56754;51.568;5.048;2023-04-09T11:35:12;102326.13;;;15.17;61.28
69535;BME280;56754;51.568;5.048;2023-04-09T11:37:38;102319.31;;;15.20;61.28
69535;BME280;56754;51.568;5.048;2023-04-09T11:40:04;102320.16;;;15.20;61.22
69535;BME280;56754;51.568;5.048;2023-04-09T11:42:30;102310.94;;;15.21;61.37
69535;BME280;56754;51.568;5.048;2023-04-09T11:44:56;102303.66;;;15.22;61.21
69535;BME280;56754;51.568;5.048;2023-04-09T11:47:22;102308.75;;;15.23;60.94
69535;BME280;56754;51.568;5.048;2023-04-09T11:49:48;102304.16;;;15.24;60.90
69535;BME280;56754;51.568;5.048;2023-04-09T11:52:14;102305.75;;;15.25;61.01
69535;BME280;56754;51.568;5.048;2023-04-09T11:54:39;102308.16;;;15.27;60.92
69535;BME280;56754;51.568;5.048;2023-04-09T11:57:05;102309.72;;;15.28;60.96
69535;BME280;56754;51.568;5.048;2023-04-09T11:59:30;102305.13;;;15.28;60.87
69535;BME280;56754;51.568;5.048;2023-04-09T12:01:59;102308.34;;;15.30;60.81
69535;BME280;56754;51.568;5.048;2023-04-09T12:04:24;102310.72;;;15.32;60.89
69535;BME280;56754;51.568;5.048;2023-04-09T12:06:50;102309.63;;;15.33;60.75
69535;BME280;56754;51.568;5.048;2023-04-09T12:09:15;102304.72;;;15.35;60.74
69535;BME280;56754;51.568;5.048;2023-04-09T12:11:44;102307.09;;;15.36;60.72
69535;BME280;56754;51.568;5.048;2023-04-09T12:14:14;102303.31;;;15.37;60.61
69535;BME280;56754;51.568;5.048;2023-04-09T12:16:40;102299.53;;;15.38;60.67
69535;BME280;56754;51.568;5.048;2023-04-09T12:19:06;102307.28;;;15.40;60.66
69535;BME280;56754;51.568;5.048;2023-04-09T12:21:51;102312.38;;;15.41;60.55
69535;BME280;56754;51.568;5.048;2023-04-09T12:24:17;102309.88;;;15.45;60.50
69535;BME280;56754;51.568;5.048;2023-04-09T12:26:47;102300.84;;;15.50;60.24
69535;BME280;56754;51.568;5.048;2023-04-09T12:29:14;102293.59;;;15.50;60.02
69535;BME280;56754;51.568;5.048;2023-04-09T12:31:40;102298.84;;;15.55;60.03
69535;BME280;56754;51.568;5.048;2023-04-09T12:34:06;102292.84;;;15.58;59.99
69535;BME280;56754;51.568;5.048;2023-04-09T12:36:31;102297.59;;;15.61;59.65
69535;BME280;56754;51.568;5.048;2023-04-09T12:38:57;102288.13;;;15.64;59.69
69535;BME280;56754;51.568;5.048;2023-04-09T12:41:22;102281.84;;;15.68;59.37
69535;BME280;56754;51.568;5.048;2023-04-09T12:43:48;102287.72;;;15.71;59.15
69535;BME280;56754;51.568;5.048;2023-04-09T12:46:13;102286.00;;;15.75;59.36
69535;BME280;56754;51.568;5.048;2023-04-09T12:48:39;102297.75;;;15.79;58.97
69535;BME280;56754;51.568;5.048;2023-04-09T12:51:06;102296.66;;;15.80;58.76
69535;BME280;56754;51.568;5.048;2023-04-09T12:53:32;102286.34;;;15.82;58.61
69535;BME280;56754;51.568;5.048;2023-04-09T12:55:57;102277.97;;;15.83;58.64
69535;BME280;56754;51.568;5.048;2023-04-09T12:58:23;102273.84;;;15.86;58.62
69535;BME280;56754;51.568;5.048;2023-04-09T13:00:48;102271.63;;;15.88;58.48